createdAt,value
2024-03-14T00:02:14.184Z,71.04
2024-03-14T00:04:38.781Z,70.73
2024-03-14T00:07:02.596Z,70.50
2024-03-14T00:09:26.396Z,70.36
2024-03-14T00:11:50.810Z,70.65
2024-03-14T00:14:14.865Z,70.66
2024-03-14T00:16:38.541Z,70.62
2024-03-14T00:19:02.159Z,70.74
2024-03-14T00:21:27.499Z,70.55
2024-03-14T00:23:51.137Z,71.06
2024-03-14T00:26:16.955Z,70.96
2024-03-14T00:28:40.853Z,71.19
2024-03-14T00:31:05.299Z,70.84
2024-03-14T00:33:29.054Z,70.97
2024-03-14T00:35:52.752Z,70.75
2024-03-14T00:38:16.342Z,70.93
2024-03-14T00:40:40.050Z,70.66
2024-03-14T00:43:03.707Z,71.02
2024-03-14T00:45:27.483Z,70.93
2024-03-14T00:47:51.340Z,70.84
2024-03-14T00:50:15.102Z,70.86
2024-03-14T00:52:38.948Z,71.05
2024-03-14T00:55:02.564Z,70.98
2024-03-14T00:57:26.242Z,71.09
2024-03-14T00:59:50.010Z,70.85
2024-03-14T01:02:13.612Z,70.87
2024-03-14T01:04:37.282Z,70.85
2024-03-14T01:07:00.970Z,70.98
2024-03-14T01:09:27.012Z,70.77
2024-03-14T01:11:50.862Z,70.63
2024-03-14T01:14:14.447Z,70.56
2024-03-14T01:16:38.183Z,70.71
2024-03-14T01:19:02.186Z,70.95
2024-03-14T01:21:25.907Z,70.59
2024-03-14T01:23:50.004Z,70.81
2024-03-14T01:26:12.691Z,70.83
2024-03-14T01:28:36.628Z,71.30
2024-03-14T01:31:00.716Z,70.74
2024-03-14T01:33:24.608Z,70.63
2024-03-14T01:35:48.313Z,70.93
2024-03-14T01:38:12.273Z,70.75
2024-03-14T01:40:35.912Z,71.16
2024-03-14T01:42:59.766Z,71.12
2024-03-14T01:45:23.786Z,71.22
2024-03-14T01:47:49.017Z,71.45
2024-03-14T01:50:12.718Z,71.60
2024-03-14T01:52:36.697Z,71.69
2024-03-14T01:55:00.303Z,71.75
2024-03-14T01:57:24.307Z,72.07
2024-03-14T01:59:51.175Z,71.65
2024-03-14T02:02:15.168Z,72.00
2024-03-14T02:04:39.178Z,71.89
2024-03-14T02:07:03.620Z,71.30
2024-03-14T02:09:29.647Z,71.64
2024-03-14T02:11:53.493Z,71.93
2024-03-14T02:14:17.316Z,71.85
2024-03-14T02:16:41.055Z,71.95
2024-03-14T02:19:04.667Z,71.71
2024-03-14T02:21:28.872Z,71.93
2024-03-14T02:23:52.945Z,72.07
2024-03-14T02:26:16.736Z,72.12
2024-03-14T02:28:40.435Z,71.95
2024-03-14T02:31:05.050Z,72.02
2024-03-14T02:33:28.789Z,72.02
2024-03-14T02:35:52.546Z,72.17
2024-03-14T02:38:16.472Z,72.30
2024-03-14T02:40:40.169Z,72.26
2024-03-14T02:43:03.741Z,71.95
2024-03-14T02:45:27.498Z,72.08
2024-03-14T02:47:51.500Z,71.93
2024-03-14T02:50:15.342Z,72.26
2024-03-14T02:52:39.873Z,72.39
2024-03-14T02:55:03.976Z,72.29
2024-03-14T02:57:27.890Z,72.60
2024-03-14T02:59:53.529Z,72.85
2024-03-14T03:02:17.108Z,72.94
2024-03-14T03:04:40.852Z,73.08
2024-03-14T03:07:06.979Z,73.36
2024-03-14T03:09:31.058Z,73.63
2024-03-14T03:11:54.860Z,73.98
2024-03-14T03:14:18.528Z,73.59
2024-03-14T03:16:42.235Z,74.41
2024-03-14T03:19:05.861Z,74.58
2024-03-14T03:21:29.811Z,74.66
2024-03-14T03:23:52.546Z,74.42
2024-03-14T03:26:16.199Z,74.41
2024-03-14T03:28:41.045Z,74.32
2024-03-14T03:31:09.663Z,75.27
2024-03-14T03:33:32.404Z,75.49
2024-03-14T03:35:56.087Z,75.49
2024-03-14T03:38:18.870Z,75.38
2024-03-14T03:40:42.520Z,75.44
2024-03-14T03:43:05.182Z,75.30
2024-03-14T03:45:30.131Z,75.71
2024-03-14T03:47:54.036Z,75.42
2024-03-14T03:50:17.845Z,75.32
2024-03-14T03:52:40.587Z,75.33
2024-03-14T03:55:05.860Z,75.29
2024-03-14T03:57:28.554Z,74.91
2024-03-14T03:59:52.185Z,75.49
2024-03-14T04:02:15.335Z,75.67
2024-03-14T04:04:39.291Z,75.99
2024-03-14T04:07:01.895Z,75.95
2024-03-14T04:09:27.278Z,75.59
2024-03-14T04:11:49.942Z,75.71
2024-03-14T04:14:13.607Z,75.89
2024-03-14T04:16:38.032Z,76.09
2024-03-14T04:19:01.779Z,76.25
2024-03-14T04:21:25.493Z,76.45
2024-03-14T04:23:49.470Z,76.58
2024-03-14T04:26:16.863Z,76.92
2024-03-14T04:28:40.872Z,76.55
2024-03-14T04:31:05.649Z,76.53
2024-03-14T04:33:29.316Z,76.78
2024-03-14T04:35:53.436Z,76.94
2024-03-14T04:38:19.649Z,76.69
2024-03-14T04:40:44.535Z,76.85
2024-03-14T04:43:09.446Z,77.02
2024-03-14T04:45:33.060Z,77.13
2024-03-14T04:47:56.970Z,77.02
2024-03-14T04:50:21.003Z,76.57
2024-03-14T04:52:45.470Z,76.52
2024-03-14T04:55:10.116Z,76.44
2024-03-14T04:57:35.646Z,76.42
2024-03-14T04:59:59.250Z,76.44
2024-03-14T05:02:23.513Z,76.58
2024-03-14T05:04:47.159Z,76.97
2024-03-14T05:07:12.382Z,76.75
2024-03-14T05:09:36.126Z,76.34
2024-03-14T05:11:59.842Z,76.24
2024-03-14T05:14:23.436Z,76.15
2024-03-14T05:16:47.128Z,75.81
2024-03-14T05:19:10.801Z,76.10
2024-03-14T05:21:34.432Z,76.27
2024-03-14T05:23:59.513Z,76.25
2024-03-14T05:26:23.112Z,76.43
2024-03-14T05:28:47.271Z,76.48
2024-03-14T05:31:11.058Z,76.49
2024-03-14T05:33:36.824Z,76.53
2024-03-14T05:36:00.786Z,76.44
2024-03-14T05:38:24.358Z,76.98
2024-03-14T05:40:47.998Z,77.25
2024-03-14T05:43:11.584Z,77.17
2024-03-14T05:45:36.584Z,77.14
2024-03-14T05:48:01.562Z,77.31
2024-03-14T05:50:32.132Z,77.27
2024-03-14T05:52:56.649Z,77.32
2024-03-14T05:55:20.399Z,77.53
2024-03-14T05:57:44.461Z,77.35
2024-03-14T06:00:10.928Z,77.16
2024-03-14T06:02:34.805Z,77.12
2024-03-14T06:04:58.408Z,77.28
2024-03-14T06:07:23.411Z,77.31
2024-03-14T06:09:48.603Z,77.33
2024-03-14T06:12:11.855Z,77.37
2024-03-14T06:14:35.706Z,77.76
2024-03-14T06:16:59.490Z,77.30
2024-03-14T06:19:23.667Z,77.11
2024-03-14T06:21:48.968Z,77.41
2024-03-14T06:24:14.396Z,77.31
2024-03-14T06:26:39.431Z,77.07
2024-03-14T06:29:06.547Z,77.10
2024-03-14T06:31:40.076Z,77.25
2024-03-14T06:34:05.710Z,77.04
2024-03-14T06:36:31.961Z,76.55
2024-03-14T06:38:56.569Z,76.66
2024-03-14T06:41:20.349Z,75.90
2024-03-14T06:43:44.860Z,75.61
2024-03-14T06:46:12.541Z,75.53
2024-03-14T06:48:39.573Z,75.18
2024-03-14T06:51:05.059Z,74.98
2024-03-14T06:53:28.716Z,74.58
2024-03-14T06:55:52.414Z,73.99
2024-03-14T06:58:19.857Z,73.36
2024-03-14T07:00:43.848Z,73.10
2024-03-14T07:03:08.204Z,72.09
2024-03-14T07:05:32.943Z,67.67
2024-03-14T07:07:56.592Z,63.87
2024-03-14T07:10:20.396Z,58.43
2024-03-14T07:12:48.148Z,56.90
2024-03-14T07:15:11.066Z,56.03
2024-03-14T07:17:38.386Z,56.10
2024-03-14T07:20:06.596Z,53.54
2024-03-14T07:22:30.294Z,52.27
2024-03-14T07:24:54.365Z,52.13
2024-03-14T07:27:18.212Z,50.32
2024-03-14T07:29:41.861Z,47.80
2024-03-14T07:32:05.707Z,46.93
2024-03-14T07:34:36.074Z,43.78
2024-03-14T07:36:59.825Z,46.70
2024-03-14T07:39:26.689Z,48.49
2024-03-14T07:41:52.601Z,53.06
2024-03-14T07:44:26.418Z,57.78
2024-03-14T07:46:56.227Z,58.24
2024-03-14T07:49:19.802Z,55.05
2024-03-14T07:51:43.753Z,47.55
2024-03-14T07:54:12.750Z,41.75
2024-03-14T07:56:36.839Z,41.13
2024-03-14T07:59:01.543Z,40.89
2024-03-14T08:01:30.209Z,46.28
2024-03-14T08:03:58.950Z,42.75
2024-03-14T08:06:23.385Z,44.18
2024-03-14T08:08:53.335Z,45.83
2024-03-14T08:11:18.514Z,47.12
2024-03-14T08:13:42.196Z,52.21
2024-03-14T08:16:15.744Z,49.72
2024-03-14T08:18:39.954Z,41.49
2024-03-14T08:21:07.028Z,38.01
2024-03-14T08:23:33.476Z,39.11
2024-03-14T08:25:57.531Z,39.10
2024-03-14T08:28:21.735Z,38.06
2024-03-14T08:33:09.343Z,37.22
2024-03-14T08:35:34.520Z,35.54
2024-03-14T08:37:58.159Z,34.35
2024-03-14T08:40:21.795Z,34.29
2024-03-14T08:42:49.228Z,35.90
2024-03-14T08:45:16.857Z,36.94
2024-03-14T08:47:41.768Z,36.72
2024-03-14T08:50:06.595Z,40.16
2024-03-14T08:52:30.313Z,41.16
2024-03-14T08:54:53.891Z,38.38
2024-03-14T08:57:19.418Z,37.08
2024-03-14T08:59:43.384Z,38.15
2024-03-14T09:02:09.052Z,35.40
2024-03-14T09:04:32.709Z,33.96
2024-03-14T09:06:58.350Z,33.39
2024-03-14T09:09:28.516Z,34.89
2024-03-14T09:11:53.203Z,34.39
2024-03-14T09:14:17.428Z,37.25
2024-03-14T09:16:43.967Z,38.89
2024-03-14T09:19:07.575Z,37.91
2024-03-14T09:21:31.508Z,35.24
2024-03-14T09:23:55.243Z,35.42
2024-03-14T09:26:18.895Z,35.49
2024-03-14T09:28:44.955Z,35.82
2024-03-14T09:31:10.145Z,36.72
2024-03-14T09:33:34.231Z,35.36
2024-03-14T09:35:57.987Z,38.23
2024-03-14T09:38:24.614Z,39.40
2024-03-14T09:40:49.160Z,36.29
2024-03-14T09:43:15.715Z,32.83
2024-03-14T09:45:40.744Z,34.92
2024-03-14T09:48:04.678Z,32.50
2024-03-14T09:50:28.782Z,31.77
2024-03-14T09:52:52.434Z,32.92
2024-03-14T09:55:16.092Z,34.70
2024-03-14T09:57:39.962Z,33.29
2024-03-14T10:00:04.285Z,33.13
2024-03-14T10:02:28.425Z,30.12
2024-03-14T10:04:52.077Z,29.40
2024-03-14T10:07:17.494Z,30.80
2024-03-14T10:09:41.296Z,31.97
2024-03-14T10:12:07.198Z,33.18
2024-03-14T10:14:33.750Z,37.49
2024-03-14T10:16:58.133Z,41.94
2024-03-14T10:19:21.823Z,41.30
2024-03-14T10:21:45.935Z,39.08
2024-03-14T10:24:12.786Z,38.23
2024-03-14T10:26:36.854Z,36.59
2024-03-14T10:29:02.483Z,32.15
2024-03-14T10:31:26.397Z,31.01
2024-03-14T10:33:51.121Z,33.97
2024-03-14T10:36:15.126Z,33.49
2024-03-14T10:38:39.286Z,33.92
2024-03-14T10:41:03.522Z,32.92
2024-03-14T10:43:29.369Z,30.11
2024-03-14T10:45:54.892Z,28.02
2024-03-14T10:48:19.149Z,28.36
2024-03-14T10:50:43.815Z,28.22
2024-03-14T10:53:07.694Z,27.33
2024-03-14T10:55:33.606Z,25.09
2024-03-14T10:57:58.963Z,26.61
2024-03-14T11:00:23.321Z,28.26
2024-03-14T11:02:47.591Z,30.79
2024-03-14T11:05:12.118Z,31.53
2024-03-14T11:07:36.020Z,32.00
2024-03-14T11:09:59.929Z,32.12
2024-03-14T11:12:25.359Z,31.50
2024-03-14T11:14:49.143Z,29.15
2024-03-14T11:17:15.337Z,31.20
2024-03-14T11:19:40.513Z,30.56
2024-03-14T11:22:04.421Z,28.01
2024-03-14T11:24:30.448Z,30.01
2024-03-14T11:26:54.331Z,30.59
2024-03-14T11:29:18.942Z,33.31
2024-03-14T11:31:45.368Z,34.41
2024-03-14T11:34:16.255Z,33.55
2024-03-14T11:36:40.173Z,33.62
2024-03-14T11:39:16.296Z,34.87
2024-03-14T11:41:42.375Z,33.05
2024-03-14T11:44:15.689Z,29.88
2024-03-14T11:46:42.734Z,30.38
2024-03-14T11:49:16.157Z,32.60
2024-03-14T11:51:42.378Z,32.49
2024-03-14T11:54:06.831Z,29.42
2024-03-14T11:56:30.512Z,26.90
2024-03-14T11:58:55.652Z,25.72
2024-03-14T12:01:25.232Z,29.74
2024-03-14T12:03:52.962Z,32.22
2024-03-14T12:06:18.706Z,31.92
2024-03-14T12:08:42.718Z,31.11
2024-03-14T12:11:06.557Z,26.70
2024-03-14T12:13:30.995Z,24.92
2024-03-14T12:15:59.116Z,26.95
2024-03-14T12:18:24.961Z,25.98
2024-03-14T12:20:48.861Z,23.36
2024-03-14T12:23:13.020Z,25.27
2024-03-14T12:25:39.821Z,25.02
2024-03-14T12:28:04.782Z,25.21
2024-03-14T12:30:28.460Z,26.35
2024-03-14T12:32:57.481Z,28.07
2024-03-14T12:35:21.364Z,29.17
2024-03-14T12:37:46.695Z,26.94
2024-03-14T12:40:14.541Z,26.15
2024-03-14T12:42:42.038Z,26.17
2024-03-14T12:45:06.956Z,27.28
2024-03-14T12:47:30.864Z,27.26
2024-03-14T12:49:54.598Z,27.13
2024-03-14T12:52:20.636Z,28.09
2024-03-14T12:54:44.477Z,27.22
2024-03-14T12:57:09.792Z,29.68
2024-03-14T12:59:37.331Z,27.60
2024-03-14T13:02:07.183Z,25.54
2024-03-14T13:04:34.064Z,26.26
2024-03-14T13:07:02.447Z,26.19
2024-03-14T13:09:26.311Z,28.56
2024-03-14T13:12:06.093Z,27.51
2024-03-14T13:14:30.378Z,29.12
2024-03-14T13:16:57.519Z,30.75
2024-03-14T13:19:22.406Z,30.20
2024-03-14T13:21:46.332Z,30.40
2024-03-14T13:24:10.650Z,29.36
2024-03-14T13:26:34.437Z,28.71
2024-03-14T13:28:59.762Z,28.24
2024-03-14T13:31:27.056Z,26.90
2024-03-14T13:33:52.283Z,26.74
2024-03-14T13:36:17.653Z,26.34
2024-03-14T13:38:41.760Z,27.11
2024-03-14T13:41:14.377Z,32.24
2024-03-14T13:43:42.120Z,33.06
2024-03-14T13:46:06.985Z,34.17
2024-03-14T13:48:33.505Z,34.15
2024-03-14T13:50:57.838Z,31.87
2024-03-14T13:53:32.555Z,32.33
2024-03-14T13:55:58.534Z,33.22
2024-03-14T13:58:23.754Z,34.83
2024-03-14T14:00:55.221Z,33.59
2024-03-14T14:03:21.757Z,29.95
2024-03-14T14:05:46.433Z,30.82
2024-03-14T14:08:11.749Z,34.20
2024-03-14T14:10:35.628Z,36.34
2024-03-14T14:12:59.250Z,35.57
2024-03-14T14:15:23.487Z,36.66
2024-03-14T14:17:49.490Z,36.89
2024-03-14T14:20:15.412Z,37.39
2024-03-14T14:22:39.276Z,37.30
2024-03-14T14:25:04.785Z,36.47
2024-03-14T14:27:28.549Z,35.88
2024-03-14T14:29:52.279Z,34.85
2024-03-14T14:32:16.159Z,32.90
2024-03-14T14:34:39.804Z,33.82
2024-03-14T14:37:03.914Z,33.34
2024-03-14T14:39:30.403Z,33.21
2024-03-14T14:41:54.929Z,34.80
2024-03-14T14:44:19.686Z,34.68
2024-03-14T14:46:43.665Z,36.30
2024-03-14T14:49:11.923Z,36.31
2024-03-14T14:51:46.878Z,37.98
2024-03-14T14:54:10.954Z,39.93
2024-03-14T14:56:35.279Z,40.69
2024-03-14T14:58:58.988Z,41.99
2024-03-14T15:01:22.791Z,43.24
2024-03-14T15:03:48.013Z,43.53
2024-03-14T15:06:12.680Z,42.95
2024-03-14T15:08:38.239Z,42.45
2024-03-14T15:11:02.147Z,41.42
2024-03-14T15:13:27.338Z,40.55
2024-03-14T15:15:52.098Z,41.10
2024-03-14T15:18:15.874Z,42.81
2024-03-14T15:20:41.647Z,43.41
2024-03-14T15:23:05.768Z,44.31
2024-03-14T15:25:29.949Z,44.85
2024-03-14T15:27:54.509Z,44.94
2024-03-14T15:30:24.257Z,45.02
2024-03-14T15:32:48.612Z,44.81
2024-03-14T15:35:13.335Z,44.50
2024-03-14T15:37:37.596Z,44.05
2024-03-14T15:40:01.237Z,44.38
2024-03-14T15:42:24.980Z,43.34
2024-03-14T15:44:48.785Z,42.75
2024-03-14T15:47:13.763Z,42.46
2024-03-14T15:49:37.439Z,43.19
2024-03-14T15:52:03.960Z,44.41
2024-03-14T15:54:27.774Z,45.23
2024-03-14T15:56:51.576Z,45.52
2024-03-14T15:59:15.332Z,45.30
2024-03-14T16:01:39.245Z,45.04
2024-03-14T16:04:03.317Z,46.03
2024-03-14T16:06:27.220Z,46.18
2024-03-14T16:08:55.480Z,46.01
2024-03-14T16:11:21.953Z,46.43
2024-03-14T16:13:46.233Z,46.72
2024-03-14T16:16:10.935Z,47.27
2024-03-14T16:18:38.345Z,47.28
2024-03-14T16:21:02.165Z,47.79
2024-03-14T16:23:26.575Z,47.88
2024-03-14T16:25:50.360Z,47.87
2024-03-14T16:28:14.315Z,48.23
2024-03-14T16:30:39.011Z,48.38
2024-03-14T16:33:03.916Z,48.53
2024-03-14T16:35:31.090Z,48.33
2024-03-14T16:37:56.602Z,48.27
2024-03-14T16:40:21.143Z,48.45
2024-03-14T16:42:48.178Z,48.18
2024-03-14T16:45:16.257Z,48.53
2024-03-14T16:47:42.337Z,48.07
2024-03-14T16:50:12.465Z,47.82
2024-03-14T16:52:38.312Z,48.48
2024-03-14T16:55:02.023Z,48.52
2024-03-14T16:57:27.015Z,48.81
2024-03-14T16:59:50.915Z,49.18
2024-03-14T17:02:17.846Z,49.35
2024-03-14T17:04:41.692Z,49.72
2024-03-14T17:07:06.183Z,50.11
2024-03-14T17:09:30.993Z,50.47
2024-03-14T17:11:58.275Z,50.71
2024-03-14T17:14:21.848Z,51.17
2024-03-14T17:16:52.772Z,51.30
2024-03-14T17:19:22.852Z,51.64
2024-03-14T17:21:51.246Z,51.89
2024-03-14T17:24:18.017Z,52.89
2024-03-14T17:26:43.874Z,54.31
2024-03-14T17:29:07.600Z,55.12
2024-03-14T17:31:31.279Z,55.31
2024-03-14T17:33:56.730Z,55.15
2024-03-14T17:36:33.536Z,56.05
2024-03-14T17:39:00.739Z,56.71
2024-03-14T17:41:24.516Z,56.40
2024-03-14T17:43:49.182Z,57.84
2024-03-14T17:46:13.933Z,58.53
2024-03-14T17:48:39.712Z,59.11
2024-03-14T17:51:03.825Z,59.29
2024-03-14T17:53:27.453Z,60.23
2024-03-14T17:55:52.374Z,60.28
2024-03-14T17:58:15.961Z,60.39
2024-03-14T18:00:40.994Z,61.48
2024-03-14T18:03:06.403Z,61.59
2024-03-14T18:05:30.309Z,61.99
2024-03-14T18:07:54.076Z,61.83
2024-03-14T18:10:17.752Z,62.09
2024-03-14T18:12:41.474Z,62.64
2024-03-14T18:15:09.562Z,63.54
2024-03-14T18:17:33.795Z,63.05
2024-03-14T18:19:57.803Z,63.34
2024-03-14T18:22:21.496Z,62.97
2024-03-14T18:24:47.824Z,63.51
2024-03-14T18:27:16.665Z,63.92
2024-03-14T18:29:41.449Z,63.43
2024-03-14T18:32:14.181Z,61.74
2024-03-14T18:34:39.723Z,60.68
2024-03-14T18:37:05.891Z,60.80
2024-03-14T18:39:30.737Z,59.92
2024-03-14T18:41:54.829Z,60.21
2024-03-14T18:44:18.525Z,60.76
2024-03-14T18:46:43.136Z,60.99
2024-03-14T18:49:14.810Z,61.20
2024-03-14T18:51:41.526Z,61.44
2024-03-14T18:54:05.429Z,61.68
2024-03-14T18:56:29.407Z,62.75
2024-03-14T18:58:53.841Z,62.62
2024-03-14T19:01:17.830Z,62.16
2024-03-14T19:03:46.704Z,62.58
2024-03-14T19:06:11.673Z,62.95
2024-03-14T19:08:38.532Z,63.49
2024-03-14T19:11:03.017Z,63.18
2024-03-14T19:13:26.865Z,63.66
2024-03-14T19:15:51.053Z,63.88
2024-03-14T19:18:15.925Z,64.74
2024-03-14T19:20:40.203Z,65.01
2024-03-14T19:23:04.127Z,64.89
2024-03-14T19:25:27.986Z,65.13
2024-03-14T19:27:54.718Z,64.91
2024-03-14T19:30:21.163Z,64.18
2024-03-14T19:32:44.845Z,63.63
2024-03-14T19:35:17.033Z,63.40
2024-03-14T19:37:51.483Z,61.84
2024-03-14T19:40:30.012Z,61.79
2024-03-14T19:42:54.189Z,61.79
2024-03-14T19:45:18.919Z,61.44
2024-03-14T19:47:46.075Z,61.26
2024-03-14T19:50:14.152Z,61.15
2024-03-14T19:52:37.817Z,60.78
2024-03-14T19:55:01.489Z,60.72
2024-03-14T19:57:25.443Z,60.83
2024-03-14T19:59:50.269Z,60.77
2024-03-14T20:02:14.270Z,60.45
2024-03-14T20:04:36.903Z,60.43
2024-03-14T20:07:00.967Z,60.77
2024-03-14T20:09:27.041Z,60.33
2024-03-14T20:11:52.364Z,60.27
2024-03-14T20:14:17.033Z,60.20
2024-03-14T20:16:40.839Z,59.94
2024-03-14T20:19:05.828Z,60.02
2024-03-14T20:21:31.275Z,59.73
2024-03-14T20:23:55.299Z,59.37
2024-03-14T20:26:22.045Z,59.22
2024-03-14T20:28:46.093Z,58.91
2024-03-14T20:31:10.067Z,59.11
2024-03-14T20:33:34.951Z,58.88
2024-03-14T20:35:59.622Z,58.31
2024-03-14T20:38:26.228Z,58.47
2024-03-14T20:41:04.598Z,58.70
2024-03-14T20:43:31.623Z,58.40
2024-03-14T20:45:56.269Z,58.47
2024-03-14T20:48:20.254Z,58.26
2024-03-14T20:50:44.054Z,58.52
2024-03-14T20:53:08.607Z,58.89
2024-03-14T20:55:32.845Z,59.40
2024-03-14T20:57:56.929Z,59.09
2024-03-14T21:00:25.336Z,58.28
2024-03-14T21:02:49.171Z,58.25
2024-03-14T21:05:23.036Z,58.29
2024-03-14T21:07:47.286Z,58.61
2024-03-14T21:10:11.684Z,58.32
2024-03-14T21:12:38.231Z,58.20
2024-03-14T21:15:02.158Z,58.10
2024-03-14T21:17:26.488Z,57.84
2024-03-14T21:19:50.858Z,57.92
2024-03-14T21:22:14.823Z,58.45
2024-03-14T21:24:38.756Z,57.94
2024-03-14T21:27:02.699Z,57.57
2024-03-14T21:29:26.451Z,57.65
2024-03-14T21:31:51.237Z,57.11
2024-03-14T21:34:26.730Z,57.36
2024-03-14T21:36:51.402Z,57.10
2024-03-14T21:39:18.048Z,57.29
2024-03-14T21:41:46.002Z,57.03
2024-03-14T21:44:12.637Z,57.45
2024-03-14T21:46:36.886Z,57.13
2024-03-14T21:49:01.946Z,57.66
2024-03-14T21:51:25.821Z,57.67
2024-03-14T21:53:51.338Z,57.68
2024-03-14T21:56:15.364Z,58.10
2024-03-14T21:58:45.738Z,58.64
2024-03-14T22:01:19.185Z,58.33
2024-03-14T22:03:43.869Z,58.46
2024-03-14T22:06:08.913Z,58.39
2024-03-14T22:08:32.504Z,59.14
2024-03-14T22:10:56.125Z,59.11
2024-03-14T22:13:20.003Z,59.56
2024-03-14T22:15:44.743Z,59.00
2024-03-14T22:18:08.861Z,59.39
2024-03-14T22:20:32.533Z,59.64
2024-03-14T22:22:56.219Z,59.36
2024-03-14T22:25:20.446Z,59.59
2024-03-14T22:27:44.210Z,59.64
2024-03-14T22:30:09.672Z,59.52
2024-03-14T22:32:33.648Z,59.45
2024-03-14T22:34:58.715Z,59.46
2024-03-14T22:37:22.560Z,59.17
2024-03-14T22:39:46.611Z,59.69
2024-03-14T22:42:11.058Z,59.51
2024-03-14T22:44:34.770Z,59.70
2024-03-14T22:46:58.393Z,59.52
2024-03-14T22:49:22.184Z,59.96
2024-03-14T22:51:45.942Z,59.81
2024-03-14T22:54:10.469Z,59.85
2024-03-14T22:56:34.115Z,59.84
2024-03-14T22:58:57.681Z,59.82
2024-03-14T23:01:22.098Z,59.84
2024-03-14T23:03:46.168Z,60.02
2024-03-14T23:06:12.220Z,60.43
2024-03-14T23:08:36.025Z,60.41
2024-03-14T23:11:00.460Z,60.66
2024-03-14T23:13:24.237Z,60.67
2024-03-14T23:15:48.317Z,60.57
2024-03-14T23:18:12.974Z,60.81
2024-03-14T23:20:37.465Z,60.94
2024-03-14T23:23:01.985Z,61.46
2024-03-14T23:25:25.558Z,61.39
2024-03-14T23:27:49.287Z,61.30
2024-03-14T23:30:13.508Z,61.14
2024-03-14T23:32:38.208Z,61.23
2024-03-14T23:35:00.930Z,61.43
2024-03-14T23:37:24.487Z,61.36
2024-03-14T23:39:48.197Z,61.86
2024-03-14T23:42:11.944Z,61.28
2024-03-14T23:44:35.693Z,61.68
2024-03-14T23:47:00.601Z,62.13
2024-03-14T23:49:24.173Z,62.74
2024-03-14T23:51:47.988Z,63.29
2024-03-14T23:54:11.680Z,63.90
2024-03-14T23:56:36.481Z,63.87
2024-03-14T23:59:01.436Z,63.70
